Time;durP1;ratioP1;P1;durP2;ratioP2;P2;SDS_P1;SDS_P2;PMS_P1;PMS_P2;Temp;Humidity;BMP_temperature;BMP_pressure;BME280_temperature;BME280_humidity;BME280_pressure;Samples;Min_cycle;Max_cycle;Signal;HPM_P1;HPM_P2
2023/07/20 00:01:30;;;;;;;3.72;2.80;;;;;;;20.60;72.04;101606.88;5028694;28;20036;-47
2023/07/20 00:03:55;;;;;;;4.20;3.13;;;;;;;20.37;72.95;101604.56;5030300;28;20040;-48
2023/07/20 00:06:22;;;;;;;5.25;3.20;;;;;;;20.49;72.46;101607.03;5030198;28;20033;-43
2023/07/20 00:08:47;;;;;;;4.65;2.80;;;;;;;20.53;72.56;101610.53;5030418;28;20033;-46
2023/07/20 00:11:13;;;;;;;4.93;2.97;;;;;;;20.32;72.78;101609.06;5029277;28;20431;-45
2023/07/20 00:13:39;;;;;;;4.07;2.78;;;;;;;20.25;72.85;101608.25;5029910;28;20060;-44
2023/07/20 00:16:05;;;;;;;4.60;2.50;;;;;;;20.22;72.19;101605.66;5029926;28;20061;-46
2023/07/20 00:18:30;;;;;;;3.33;2.08;;;;;;;20.26;71.36;101607.38;5029227;28;20068;-48
2023/07/20 00:20:55;;;;;;;1.90;1.60;;;;;;;20.04;72.01;101608.56;5029159;28;20034;-47
2023/07/20 00:23:22;;;;;;;3.58;1.20;;;;;;;19.94;71.03;101599.03;5029050;28;20465;-44
2023/07/20 00:25:48;;;;;;;2.10;1.20;;;;;;;19.92;70.94;101600.81;5030199;28;20029;-47
2023/07/20 00:28:13;;;;;;;1.42;1.08;;;;;;;19.82;70.94;101605.31;5029388;28;20071;-45
2023/07/20 00:30:40;;;;;;;1.20;1.08;;;;;;;19.76;70.99;101610.69;5029510;28;20593;-46
2023/07/20 00:33:10;;;;;;;1.48;1.10;;;;;;;19.71;70.73;101607.25;5029519;28;20042;-48
2023/07/20 00:35:35;;;;;;;1.10;1.00;;;;;;;19.71;70.32;101606.38;5031228;28;20026;-44
2023/07/20 00:38:00;;;;;;;1.50;1.10;;;;;;;19.64;70.48;101610.84;5031493;28;20093;-42
2023/07/20 00:40:26;;;;;;;1.60;1.20;;;;;;;19.62;70.71;101610.03;5027931;28;20083;-47
2023/07/20 00:42:52;;;;;;;1.88;1.20;;;;;;;19.58;70.83;101607.44;5028636;28;20512;-47
2023/07/20 00:45:17;;;;;;;1.40;1.10;;;;;;;19.61;70.88;101608.25;5028360;28;20551;-49
2023/07/20 00:47:43;;;;;;;2.72;1.30;;;;;;;19.63;70.88;101598.53;5030164;28;20268;-47
2023/07/20 00:50:10;;;;;;;1.83;1.20;;;;;;;19.61;71.17;101599.44;5029100;28;20168;-47
2023/07/20 00:52:39;;;;;;;1.60;1.23;;;;;;;19.56;71.10;101596.00;5029449;28;20696;-45
2023/07/20 00:55:04;;;;;;;2.55;1.30;;;;;;;19.52;70.93;101603.06;5029516;28;20110;-50
2023/07/20 00:57:30;;;;;;;2.20;1.20;;;;;;;19.47;70.87;101602.25;5027684;28;20072;-49
2023/07/20 00:59:55;;;;;;;1.80;1.35;;;;;;;19.33;71.15;101601.53;5028806;28;20162;-44
2023/07/20 01:02:21;;;;;;;2.95;1.50;;;;;;;19.23;71.80;101610.41;5028958;28;20553;-45
2023/07/20 01:04:47;;;;;;;1.73;1.33;;;;;;;19.18;72.06;101602.53;5029359;28;20052;-47
2023/07/20 01:07:22;;;;;;;1.90;1.23;;;;;;;19.19;71.70;101609.59;5028955;28;20029;-47
2023/07/20 01:10:03;;;;;;;2.38;1.60;;;;;;;19.03;72.56;101611.50;5028969;28;20467;-45
2023/07/20 01:12:50;;;;;;;2.28;1.50;;;;;;;18.97;73.32;101616.84;5029231;28;20485;-50
2023/07/20 01:15:16;;;;;;;2.58;1.70;;;;;;;18.95;73.12;101613.34;5029215;28;20068;-47
2023/07/20 01:17:41;;;;;;;3.17;1.73;;;;;;;18.80;74.18;101617.88;5029441;28;20065;-43
2023/07/20 01:20:08;;;;;;;3.40;1.65;;;;;;;18.93;73.80;101611.59;5028938;28;20111;-45
2023/07/20 01:22:57;;;;;;;2.08;1.50;;;;;;;19.03;73.11;101611.50;5030288;28;20097;-42
2023/07/20 01:25:41;;;;;;;2.53;1.38;;;;;;;19.08;72.66;101615.88;5031221;28;20041;-45
2023/07/20 01:28:12;;;;;;;1.73;1.40;;;;;;;19.10;72.15;101619.34;5031516;28;20041;-42
2023/07/20 01:31:30;;;;;;;1.70;1.30;;;;;;;18.89;73.33;101626.63;5030906;28;20100;-45
2023/07/20 01:33:58;;;;;;;2.40;1.70;;;;;;;18.89;73.89;101625.75;4949745;29;20042;-51
2023/07/20 01:36:25;;;;;;;2.35;1.58;;;;;;;18.99;73.80;101623.00;4950451;29;20074;-44
2023/07/20 01:38:51;;;;;;;3.15;1.40;;;;;;;19.16;73.35;101627.22;4995982;28;20036;-43
2023/07/20 01:41:18;;;;;;;1.60;1.40;;;;;;;19.18;74.11;101628.97;5027069;28;20121;-45
2023/07/20 01:43:43;;;;;;;2.97;1.52;;;;;;;19.28;73.92;101625.34;5031481;28;20029;-50
2023/07/20 01:46:08;;;;;;;3.10;1.58;;;;;;;19.38;73.77;101626.13;5030993;28;20103;-46
2023/07/20 01:48:34;;;;;;;2.00;1.40;;;;;;;19.43;73.72;101619.03;5028575;28;20061;-44
2023/07/20 01:50:59;;;;;;;1.90;1.23;;;;;;;19.47;73.73;101619.88;5027013;28;20152;-44
2023/07/20 01:53:24;;;;;;;3.58;1.45;;;;;;;19.50;73.43;101625.16;5028554;28;20102;-47
2023/07/20 01:55:53;;;;;;;2.20;1.50;;;;;;;19.47;73.39;101623.41;5030453;28;20063;-44
2023/07/20 01:58:18;;;;;;;2.47;1.50;;;;;;;19.44;73.41;101621.66;5036700;28;20384;-43
2023/07/20 02:00:44;;;;;;;2.42;1.40;;;;;;;19.44;73.42;101624.31;5033211;28;20037;-46
2023/07/20 02:03:11;;;;;;;4.40;1.60;;;;;;;19.19;73.80;101624.56;5032411;28;20036;-44
2023/07/20 02:05:37;;;;;;;3.03;1.50;;;;;;;19.08;74.49;101632.63;5033075;28;20111;-44
2023/07/20 02:08:02;;;;;;;3.22;1.52;;;;;;;19.01;74.42;101633.56;5032545;28;20061;-46
2023/07/20 02:10:28;;;;;;;3.53;1.83;;;;;;;18.89;75.17;101633.66;5031167;28;20384;-45
2023/07/20 02:12:53;;;;;;;2.78;1.60;;;;;;;19.02;74.62;101620.34;5032137;28;20116;-44
2023/07/20 02:15:19;;;;;;;2.85;1.77;;;;;;;19.09;74.57;101631.69;5031718;28;20431;-45
2023/07/20 02:17:44;;;;;;;2.47;1.70;;;;;;;19.21;74.47;101623.66;5032289;28;20037;-45
2023/07/20 02:20:10;;;;;;;5.10;1.60;;;;;;;19.12;74.94;101622.88;5031041;28;20033;-45
2023/07/20 02:22:37;;;;;;;3.13;1.70;;;;;;;19.29;74.65;101624.44;5031973;28;20080;-45
2023/07/20 02:25:04;;;;;;;2.17;1.50;;;;;;;19.44;74.44;101623.41;5031968;28;20088;-47
2023/07/20 02:27:29;;;;;;;1.95;1.70;;;;;;;19.28;74.72;101630.63;5031107;28;20038;-42
2023/07/20 02:29:54;;;;;;;2.97;1.65;;;;;;;19.27;74.51;101620.09;5031120;28;20037;-44
2023/07/20 02:32:20;;;;;;;2.35;1.60;;;;;;;19.30;73.93;101622.69;5031314;28;20061;-43
2023/07/20 02:34:45;;;;;;;2.33;1.70;;;;;;;19.22;74.04;101620.13;5029687;28;20080;-45
2023/07/20 02:37:12;;;;;;;2.60;1.50;;;;;;;19.25;73.74;101619.22;5031392;28;20052;-46
2023/07/20 02:39:38;;;;;;;2.33;1.58;;;;;;;19.26;73.53;101620.97;5031283;28;20496;-41
2023/07/20 02:42:04;;;;;;;1.70;1.30;;;;;;;19.26;72.52;101620.97;5031759;28;20103;-45
2023/07/20 02:44:30;;;;;;;2.30;1.50;;;;;;;19.13;73.02;101625.50;5030978;28;20040;-46
2023/07/20 02:46:55;;;;;;;2.03;1.50;;;;;;;19.10;72.52;101625.53;5031597;28;20407;-47
2023/07/20 02:49:21;;;;;;;2.50;1.40;;;;;;;19.01;72.58;101623.88;5030805;28;20049;-47
2023/07/20 02:51:46;;;;;;;1.63;1.40;;;;;;;18.91;73.07;101627.47;5030828;28;20506;-44
2023/07/20 02:54:12;;;;;;;2.63;1.45;;;;;;;18.95;72.91;101625.69;5031196;28;20092;-49
2023/07/20 02:56:37;;;;;;;2.22;1.35;;;;;;;18.94;72.95;101634.50;5032018;28;20500;-44
2023/07/20 02:59:03;;;;;;;2.00;1.50;;;;;;;18.93;72.96;101632.75;5031373;28;20330;-44
2023/07/20 03:01:31;;;;;;;2.58;1.70;;;;;;;18.89;72.95;101633.66;5030176;28;20033;-46
2023/07/20 03:03:57;;;;;;;2.65;1.40;;;;;;;18.88;72.80;101638.06;5031249;28;20103;-47
2023/07/20 03:06:22;;;;;;;3.35;1.60;;;;;;;18.79;73.55;101639.91;5030872;28;20484;-44
2023/07/20 03:08:48;;;;;;;3.25;1.70;;;;;;;18.62;74.42;101635.63;5030798;28;20037;-50
2023/07/20 03:11:18;;;;;;;3.25;1.83;;;;;;;18.52;74.85;101648.88;5029921;28;20037;-43
2023/07/20 03:13:45;;;;;;;2.83;1.65;;;;;;;18.50;74.79;101646.25;5031113;28;20411;-43
2023/07/20 03:16:12;;;;;;;3.05;1.50;;;;;;;18.43;74.99;101647.19;5030532;28;20037;-44
2023/07/20 03:18:41;;;;;;;2.30;1.60;;;;;;;18.34;75.45;101649.88;5031167;28;20557;-43
2023/07/20 03:21:07;;;;;;;1.77;1.45;;;;;;;18.28;75.39;101654.31;5030748;28;20455;-46
2023/07/20 03:23:33;;;;;;;2.15;1.60;;;;;;;18.34;75.38;101656.94;5030353;28;20034;-46
2023/07/20 03:25:58;;;;;;;2.03;1.67;;;;;;;18.27;75.68;101647.28;5029575;28;20075;-44
2023/07/20 03:28:23;;;;;;;3.80;1.70;;;;;;;18.35;75.22;101656.06;5030296;28;20037;-44
2023/07/20 03:30:56;;;;;;;4.13;1.90;;;;;;;18.36;75.19;101661.28;5030823;28;20049;-48
2023/07/20 03:33:25;;;;;;;2.38;1.60;;;;;;;18.38;75.24;101662.16;5032481;28;20117;-46
2023/07/20 03:35:51;;;;;;;2.42;1.80;;;;;;;18.42;75.05;101655.13;5033281;28;20083;-46
2023/07/20 03:38:16;;;;;;;3.10;1.85;;;;;;;18.41;75.11;101662.16;5032920;28;20070;-46
2023/07/20 03:40:52;;;;;;;3.33;1.95;;;;;;;18.40;75.18;101660.41;5032567;28;20068;-49
2023/07/20 03:43:18;;;;;;;3.47;1.80;;;;;;;18.35;75.62;101658.69;5031466;28;20071;-49
2023/07/20 03:45:43;;;;;;;2.80;1.80;;;;;;;18.32;75.62;101656.94;5033230;28;20121;-42
2023/07/20 03:48:09;;;;;;;5.22;2.17;;;;;;;18.28;76.01;101656.97;5032576;28;20048;-43
2023/07/20 03:50:34;;;;;;;2.40;1.90;;;;;;;18.37;75.90;101656.91;5032462;28;20042;-47
2023/07/20 03:52:59;;;;;;;2.28;1.60;;;;;;;18.52;75.06;101654.16;5030564;28;20460;-48
2023/07/20 03:55:25;;;;;;;2.42;1.80;;;;;;;18.55;74.66;101659.44;5030396;28;20053;-47
2023/07/20 03:57:50;;;;;;;4.38;1.75;;;;;;;18.55;74.61;101664.72;5031523;28;20091;-45
2023/07/20 04:00:17;;;;;;;2.00;1.40;;;;;;;18.60;73.95;101657.69;5032133;28;20037;-44
2023/07/20 04:02:42;;;;;;;2.40;1.80;;;;;;;18.55;74.11;101654.16;5030877;28;20112;-46
2023/07/20 04:05:08;;;;;;;2.50;1.77;;;;;;;18.51;74.42;101662.97;5029943;28;20121;-47
2023/07/20 04:07:33;;;;;;;3.58;2.00;;;;;;;18.25;75.43;101652.56;5030267;28;20052;-46
2023/07/20 04:09:59;;;;;;;4.93;2.10;;;;;;;18.19;76.54;101660.53;5029579;28;20030;-45
2023/07/20 04:12:24;;;;;;;4.35;2.08;;;;;;;18.45;76.01;101657.72;5029407;28;20038;-43
2023/07/20 04:14:49;;;;;;;2.53;1.70;;;;;;;18.66;75.37;101655.00;5029194;28;20030;-45
2023/07/20 04:17:15;;;;;;;4.00;1.90;;;;;;;18.76;75.01;101656.66;5029324;28;20128;-45
2023/07/20 04:19:40;;;;;;;4.28;2.10;;;;;;;18.71;75.58;101657.59;5027612;28;20403;-45
2023/07/20 04:22:05;;;;;;;3.35;2.00;;;;;;;18.80;75.63;101654.88;5029714;28;20064;-50
2023/07/20 04:24:31;;;;;;;4.53;1.90;;;;;;;18.87;75.93;101660.09;5029594;28;20175;-47
2023/07/20 04:26:56;;;;;;;4.78;2.25;;;;;;;18.87;75.91;101662.72;5029779;28;20551;-48
2023/07/20 04:29:21;;;;;;;4.57;2.20;;;;;;;18.75;76.53;101664.59;5029747;28;20034;-46
2023/07/20 04:31:47;;;;;;;3.38;2.20;;;;;;;18.88;76.59;101660.97;5030184;28;20033;-44
2023/07/20 04:34:12;;;;;;;4.95;2.28;;;;;;;18.86;76.63;101678.59;5030056;28;20408;-48
2023/07/20 04:36:37;;;;;;;2.85;2.30;;;;;;;19.06;76.30;101676.66;5030603;28;20407;-44
2023/07/20 04:39:04;;;;;;;3.50;2.20;;;;;;;19.31;75.94;101679.97;5030081;28;20037;-44
2023/07/20 04:41:29;;;;;;;3.25;2.20;;;;;;;19.44;75.74;101671.91;5029003;28;20041;-45
2023/07/20 04:43:55;;;;;;;5.18;2.10;;;;;;;19.63;75.52;101674.38;5029990;28;20037;-45
2023/07/20 04:46:21;;;;;;;3.15;1.70;;;;;;;19.71;75.26;101676.03;5029212;28;20508;-43
2023/07/20 04:48:47;;;;;;;3.00;2.22;;;;;;;19.77;75.08;101683.91;5029649;28;20033;-43
2023/07/20 04:51:13;;;;;;;3.97;2.40;;;;;;;19.88;74.75;101678.50;5029439;28;20055;-49
2023/07/20 04:53:38;;;;;;;4.20;2.42;;;;;;;19.85;75.06;101684.69;5032305;28;20034;-42
2023/07/20 04:56:04;;;;;;;4.10;2.30;;;;;;;19.84;75.38;101675.00;5031986;28;20041;-44
2023/07/20 04:58:29;;;;;;;5.05;2.97;;;;;;;19.90;75.59;101681.97;5030198;28;20037;-49
2023/07/20 05:00:54;;;;;;;4.72;2.60;;;;;;;19.98;75.31;101682.78;5029240;28;20139;-45
2023/07/20 05:03:20;;;;;;;3.60;2.60;;;;;;;20.07;75.05;101676.47;5030018;28;20040;-45
2023/07/20 05:05:47;;;;;;;5.20;2.20;;;;;;;20.29;74.79;101675.31;5030557;28;20040;-43
2023/07/20 05:08:13;;;;;;;3.50;2.13;;;;;;;20.33;74.66;101674.38;5031543;28;20033;-43
2023/07/20 05:10:38;;;;;;;3.20;2.13;;;;;;;20.22;74.22;101679.81;5029251;28;20403;-49
2023/07/20 05:13:03;;;;;;;3.30;2.40;;;;;;;20.20;74.19;101681.59;5029646;28;20084;-44
2023/07/20 05:15:29;;;;;;;3.67;2.38;;;;;;;20.41;74.23;101679.59;5029276;28;20108;-46
2023/07/20 05:17:54;;;;;;;3.67;2.67;;;;;;;20.40;73.98;101680.47;5029354;28;20077;-50
2023/07/20 05:20:20;;;;;;;3.92;2.40;;;;;;;20.51;72.69;101686.50;5028018;28;20041;-48
2023/07/20 05:22:45;;;;;;;5.13;2.40;;;;;;;21.99;77.93;101684.81;5029134;28;20036;-48
2023/07/20 05:25:11;;;;;;;3.28;2.10;;;;;;;22.50;68.14;101683.66;5028969;28;20029;-48
2023/07/20 05:27:37;;;;;;;3.70;2.10;;;;;;;23.29;66.24;101683.53;5029057;28;20447;-47
2023/07/20 05:30:03;;;;;;;2.95;2.00;;;;;;;23.96;62.57;101676.34;5031476;28;20058;-48
2023/07/20 05:32:29;;;;;;;2.90;1.95;;;;;;;23.96;58.45;101682.56;5033044;28;20034;-49
2023/07/20 05:34:54;;;;;;;3.22;1.98;;;;;;;25.40;56.93;101685.94;5036179;28;20044;-45
2023/07/20 05:37:20;;;;;;;2.85;1.98;;;;;;;25.47;51.94;101670.56;5036537;28;20128;-49
2023/07/20 05:39:46;;;;;;;5.18;1.77;;;;;;;25.94;49.94;101671.50;5043798;28;20120;-48
2023/07/20 05:42:11;;;;;;;2.53;1.90;;;;;;;26.77;48.78;101678.06;5049384;28;20056;-45
2023/07/20 05:44:36;;;;;;;3.63;1.50;;;;;;;26.64;47.54;101671.47;5046087;28;20037;-45
2023/07/20 05:47:05;;;;;;;2.40;1.15;;;;;;;26.89;44.96;101668.69;5033122;28;20041;-47
2023/07/20 05:49:30;;;;;;;1.55;1.00;;;;;;;29.14;40.38;101668.94;5031998;28;20025;-46
2023/07/20 05:51:56;;;;;;;2.92;1.02;;;;;;;28.47;40.17;101666.91;5032903;28;20052;-49
2023/07/20 05:54:23;;;;;;;3.30;1.10;;;;;;;28.19;38.85;101667.34;5032206;28;20038;-51
2023/07/20 05:56:49;;;;;;;2.22;1.02;;;;;;;27.21;41.57;101676.19;5032509;28;20029;-45
2023/07/20 05:59:14;;;;;;;4.53;0.90;;;;;;;28.25;39.04;101670.59;5032498;28;20053;-45
2023/07/20 06:01:40;;;;;;;2.10;0.90;;;;;;;29.41;36.58;101675.59;5032310;28;20025;-45
2023/07/20 06:04:05;;;;;;;1.55;0.70;;;;;;;28.49;36.71;101671.25;5033801;28;20034;-47
2023/07/20 06:06:31;;;;;;;1.50;0.90;;;;;;;28.57;38.44;101674.44;5033874;28;20060;-45
2023/07/20 06:08:56;;;;;;;2.30;0.65;;;;;;;28.88;35.50;101663.06;5032379;28;20033;-45
2023/07/20 06:11:21;;;;;;;2.97;1.00;;;;;;;29.15;37.40;101676.06;5031045;28;20037;-44
2023/07/20 06:13:47;;;;;;;1.88;0.90;;;;;;;29.11;37.39;101674.44;5031969;28;20120;-48
2023/07/20 06:16:12;;;;;;;1.30;0.60;;;;;;;30.45;33.62;101678.84;5031768;28;20087;-41
2023/07/20 06:18:38;;;;;;;1.35;0.77;;;;;;;29.91;32.42;101683.66;5031944;28;20041;-45
2023/07/20 06:21:03;;;;;;;2.85;0.60;;;;;;;29.31;33.10;101683.22;5030308;28;20033;-47
2023/07/20 06:23:29;;;;;;;1.00;0.60;;;;;;;30.66;31.84;101688.44;5030151;28;20033;-43
2023/07/20 06:25:54;;;;;;;3.70;0.80;;;;;;;29.43;34.56;101685.31;5030851;28;20577;-44
2023/07/20 06:28:19;;;;;;;1.15;0.60;;;;;;;30.24;32.42;101689.88;5031110;28;20485;-49
2023/07/20 06:30:45;;;;;;;2.20;0.80;;;;;;;30.17;33.52;101680.41;5031312;28;20037;-45
2023/07/20 06:33:10;;;;;;;1.20;0.63;;;;;;;29.19;33.86;101685.69;5031068;28;20060;-47
2023/07/20 06:35:35;;;;;;;2.40;0.80;;;;;;;28.01;35.33;101687.81;5031601;28;20037;-45
2023/07/20 06:38:03;;;;;;;3.30;0.80;;;;;;;27.10;38.05;101690.97;5031785;28;20560;-44
2023/07/20 06:40:28;;;;;;;1.08;0.70;;;;;;;27.60;38.21;101691.50;5031313;28;20107;-49
2023/07/20 06:42:53;;;;;;;1.52;0.73;;;;;;;28.30;39.23;101691.84;5031318;28;20029;-49
2023/07/20 06:45:19;;;;;;;1.80;0.73;;;;;;;28.74;37.64;101695.09;5031235;28;20072;-48
2023/07/20 06:47:44;;;;;;;1.83;0.90;;;;;;;28.94;36.22;101684.25;5031503;28;20120;-49
2023/07/20 06:50:10;;;;;;;3.20;0.90;;;;;;;28.71;37.90;101694.34;5029342;28;20060;-44
2023/07/20 06:52:36;;;;;;;1.27;0.80;;;;;;;30.84;32.77;101690.06;5031416;28;20084;-47
2023/07/20 06:55:02;;;;;;;1.50;0.70;;;;;;;31.78;30.18;101688.88;5031272;28;20567;-45
2023/07/20 06:57:27;;;;;;;4.32;0.80;;;;;;;29.99;33.95;101689.50;5029584;28;20133;-44
2023/07/20 06:59:53;;;;;;;1.98;0.90;;;;;;;29.66;33.06;101694.84;5030509;28;20113;-48
2023/07/20 07:02:19;;;;;;;1.23;0.70;;;;;;;29.76;32.56;101695.22;5030556;28;20539;-46
2023/07/20 07:04:45;;;;;;;1.85;0.80;;;;;;;29.89;34.52;101698.13;5031067;28;20423;-44
2023/07/20 07:07:10;;;;;;;1.27;0.70;;;;;;;30.39;33.98;101696.22;5003027;28;20042;-47
2023/07/20 07:09:36;;;;;;;1.38;0.70;;;;;;;30.97;32.09;101691.06;5030232;28;20083;-48
2023/07/20 07:12:01;;;;;;;1.38;0.80;;;;;;;31.48;29.83;101697.00;5031030;28;20492;-47
2023/07/20 07:14:26;;;;;;;4.40;0.90;;;;;;;29.90;31.81;101695.34;5030623;28;20045;-45
2023/07/20 07:16:52;;;;;;;1.75;0.80;;;;;;;29.17;35.45;101699.19;5030966;28;20029;-47
2023/07/20 07:19:17;;;;;;;1.27;0.90;;;;;;;28.85;36.21;101697.28;5030617;28;20033;-46
2023/07/20 07:21:43;;;;;;;1.65;0.80;;;;;;;30.68;31.73;101696.44;5030275;28;20111;-45
2023/07/20 07:24:09;;;;;;;2.28;0.85;;;;;;;32.40;28.25;101687.59;5030437;28;20057;-48
2023/07/20 07:26:36;;;;;;;1.60;0.60;;;;;;;32.80;28.58;101693.13;5030471;28;20562;-44
2023/07/20 07:29:01;;;;;;;1.58;1.00;;;;;;;31.57;30.17;101693.75;5030537;28;20172;-45
2023/07/20 07:31:28;;;;;;;1.10;0.73;;;;;;;31.32;32.07;101698.91;5029468;28;20144;-49
2023/07/20 07:33:53;;;;;;;3.55;0.90;;;;;;;30.64;32.27;101696.59;5030420;28;20492;-47
2023/07/20 07:36:19;;;;;;;3.95;1.08;;;;;;;28.96;35.38;101693.09;5030326;28;20091;-48
2023/07/20 07:38:44;;;;;;;2.53;0.82;;;;;;;29.90;33.98;101698.03;5030541;28;20495;-45
2023/07/20 07:41:10;;;;;;;4.10;1.00;;;;;;;28.55;37.89;101703.13;5029392;28;20400;-46
2023/07/20 07:43:35;;;;;;;4.05;0.95;;;;;;;28.60;34.38;101703.81;5030383;28;20095;-45
2023/07/20 07:46:01;;;;;;;2.97;1.10;;;;;;;26.18;38.98;101708.00;5030675;28;20512;-44
2023/07/20 07:48:27;;;;;;;3.38;1.20;;;;;;;27.30;36.51;101707.94;5031198;28;20810;-45
2023/07/20 07:50:53;;;;;;;1.40;1.00;;;;;;;26.93;38.20;101718.47;5031879;28;20404;-45
2023/07/20 07:53:20;;;;;;;2.33;1.10;;;;;;;26.33;41.47;101713.72;5028952;28;20045;-45
2023/07/20 07:55:47;;;;;;;3.65;1.23;;;;;;;26.07;39.90;101709.34;5030244;28;20037;-46
2023/07/20 07:58:13;;;;;;;2.85;1.10;;;;;;;26.22;40.38;101706.97;5029703;28;20442;-45
2023/07/20 08:00:39;;;;;;;3.90;1.20;;;;;;;25.45;42.66;101713.31;5029578;28;20029;-44
2023/07/20 08:03:06;;;;;;;3.40;1.35;;;;;;;25.37;45.89;101714.53;5030144;28;20033;-45
2023/07/20 08:05:31;;;;;;;1.88;1.30;;;;;;;24.15;48.54;101718.38;5030118;28;20032;-46
2023/07/20 08:07:57;;;;;;;5.63;1.40;;;;;;;23.41;51.24;101729.31;5032585;28;20029;-46
2023/07/20 08:10:22;;;;;;;2.70;1.25;;;;;;;23.41;50.17;101728.44;5032672;28;20038;-47
2023/07/20 08:12:48;;;;;;;2.65;1.38;;;;;;;23.19;51.00;101730.75;5031111;28;20051;-45
2023/07/20 08:15:14;;;;;;;1.95;1.20;;;;;;;22.76;52.26;101724.72;5029490;28;20025;-45
2023/07/20 08:17:40;;;;;;;4.30;1.60;;;;;;;22.21;53.75;101721.50;5030033;28;20125;-47
2023/07/20 08:20:06;;;;;;;8.10;1.70;;;;;;;22.47;52.61;101720.94;5029312;28;20044;-44
2023/07/20 08:22:31;;;;;;;2.63;1.50;;;;;;;22.67;53.61;101716.03;5029337;28;20444;-44
2023/07/20 08:24:57;;;;;;;2.58;1.50;;;;;;;23.22;52.41;101722.72;5029835;28;20038;-49
2023/07/20 08:27:22;;;;;;;2.42;1.27;;;;;;;24.65;51.90;101716.00;5029929;28;20495;-46
2023/07/20 08:29:47;;;;;;;2.65;1.10;;;;;;;25.38;43.30;101710.91;5031476;28;20033;-46
2023/07/20 08:32:14;;;;;;;4.13;1.10;;;;;;;26.12;40.72;101715.38;5030119;28;20125;-45
2023/07/20 08:34:39;;;;;;;1.73;1.00;;;;;;;27.37;40.99;101717.47;5030293;28;20582;-47
2023/07/20 08:37:05;;;;;;;1.60;1.00;;;;;;;26.60;38.66;101708.16;5029490;28;20112;-45
2023/07/20 08:39:31;;;;;;;5.03;1.10;;;;;;;25.88;39.77;101706.47;5028893;28;20411;-45
2023/07/20 08:41:59;;;;;;;2.35;1.05;;;;;;;26.14;41.89;101711.72;5029259;28;20488;-47
2023/07/20 08:44:25;;;;;;;3.13;0.98;;;;;;;24.83;43.40;101714.53;5028953;28;20083;-46
2023/07/20 08:46:52;;;;;;;2.20;1.10;;;;;;;24.31;45.76;101712.63;5029415;28;20030;-47
2023/07/20 08:49:18;;;;;;;1.10;0.90;;;;;;;23.96;44.49;101708.31;5029032;28;20030;-46
2023/07/20 08:51:46;;;;;;;1.55;0.90;;;;;;;23.56;44.97;101714.75;5028774;28;20561;-45
2023/07/20 08:54:13;;;;;;;1.35;0.93;;;;;;;23.06;45.87;101706.25;5028725;28;20083;-44
2023/07/20 08:56:40;;;;;;;1.10;0.90;;;;;;;23.47;46.61;101709.69;5027789;28;20095;-51
2023/07/20 08:59:07;;;;;;;2.08;1.00;;;;;;;23.09;47.88;101713.28;5029299;28;20065;-43
2023/07/20 09:01:34;;;;;;;2.22;1.20;;;;;;;23.69;47.55;101712.63;5028420;28;20061;-46
2023/07/20 09:04:00;;;;;;;2.10;1.08;;;;;;;24.11;45.87;101707.84;5029503;28;20037;-45
2023/07/20 09:06:27;;;;;;;1.65;1.00;;;;;;;24.64;44.38;101707.13;5032677;28;20068;-45
2023/07/20 09:08:52;;;;;;;1.40;0.93;;;;;;;24.73;42.32;101710.41;5033055;28;20029;-49
2023/07/20 09:11:18;;;;;;;3.97;1.02;;;;;;;23.74;45.17;101714.25;5033043;28;20042;-46
2023/07/20 09:13:45;;;;;;;2.85;1.15;;;;;;;24.59;44.68;101710.84;5034181;28;20033;-53
2023/07/20 09:16:14;;;;;;;1.75;1.00;;;;;;;24.29;46.04;101717.13;5034797;28;20029;-46
2023/07/20 09:18:39;;;;;;;3.28;1.20;;;;;;;24.25;42.40;101709.25;5033303;28;20029;-52
2023/07/20 09:21:08;;;;;;;3.05;1.00;;;;;;;24.40;42.58;101707.00;5032937;28;20040;-49
2023/07/20 09:23:35;;;;;;;0.95;0.80;;;;;;;23.72;44.32;101713.44;5032799;28;20037;-45
2023/07/20 09:26:11;;;;;;;1.30;0.80;;;;;;;24.36;42.38;101713.38;5032811;28;20036;-49
2023/07/20 09:28:46;;;;;;;2.15;0.93;;;;;;;23.32;44.72;101713.56;5032289;28;20041;-48
2023/07/20 09:31:22;;;;;;;2.45;0.90;;;;;;;22.99;46.62;101715.28;5031763;28;20038;-47
2023/07/20 09:33:48;;;;;;;3.00;0.90;;;;;;;23.99;43.21;101705.53;5032878;28;20512;-46
2023/07/20 09:36:14;;;;;;;1.15;0.80;;;;;;;24.75;41.04;101713.94;5032707;28;20025;-48
2023/07/20 09:38:43;;;;;;;1.20;0.80;;;;;;;24.88;41.22;101710.81;5033152;28;20041;-45
2023/07/20 09:41:13;;;;;;;1.50;0.88;;;;;;;25.37;39.60;101701.19;5034088;28;20463;-48
2023/07/20 09:43:39;;;;;;;2.03;0.80;;;;;;;25.55;37.75;101700.53;5034440;28;20539;-45
2023/07/20 09:46:04;;;;;;;1.70;0.80;;;;;;;26.24;38.53;101704.25;5033420;28;20120;-44
2023/07/20 09:48:30;;;;;;;2.15;1.00;;;;;;;25.05;41.41;101708.50;5031814;28;20121;-45
2023/07/20 09:50:56;;;;;;;2.30;0.80;;;;;;;25.88;38.48;101694.91;5035163;28;20065;-47
2023/07/20 09:53:24;;;;;;;1.52;0.80;;;;;;;25.79;39.64;101696.16;5034786;28;20049;-49
2023/07/20 09:55:50;;;;;;;1.00;0.70;;;;;;;25.20;40.30;101701.75;5032943;28;20411;-45
2023/07/20 09:58:16;;;;;;;1.98;0.80;;;;;;;24.35;41.54;101700.94;5031833;28;20037;-50
2023/07/20 10:00:45;;;;;;;1.00;0.90;;;;;;;24.22;43.69;101697.78;5031859;28;20025;-48
2023/07/20 10:03:12;;;;;;;3.15;1.00;;;;;;;24.58;43.63;101699.31;5031890;28;20036;-44
2023/07/20 10:05:42;;;;;;;1.23;0.88;;;;;;;24.66;42.63;101696.41;5032213;28;20029;-48
2023/07/20 10:08:11;;;;;;;1.70;1.00;;;;;;;23.85;42.63;101706.81;5031701;28;20446;-44
2023/07/20 10:10:40;;;;;;;1.83;1.17;;;;;;;23.91;42.29;101696.94;5032256;28;20037;-45
2023/07/20 10:13:10;;;;;;;2.10;1.08;;;;;;;24.65;40.94;101700.88;5033793;28;20037;-44
2023/07/20 10:15:47;;;;;;;7.22;0.90;;;;;;;24.87;40.01;101703.72;5032579;28;20076;-47
2023/07/20 10:18:18;;;;;;;1.13;0.88;;;;;;;24.35;39.89;101696.50;5031471;28;20449;-50
2023/07/20 10:20:46;;;;;;;1.85;1.08;;;;;;;23.96;41.64;101706.53;5031578;28;20033;-45
2023/07/20 10:23:12;;;;;;;2.35;0.95;;;;;;;24.05;41.00;101698.25;5031329;28;20171;-46
2023/07/20 10:25:38;;;;;;;1.00;0.80;;;;;;;24.63;41.14;101694.72;5031799;28;20033;-49
2023/07/20 10:28:07;;;;;;;1.88;0.93;;;;;;;24.50;42.58;101689.81;5031838;28;20056;-55
2023/07/20 10:30:36;;;;;;;1.90;0.90;;;;;;;24.06;43.41;101697.34;5030670;28;20043;-46
2023/07/20 10:33:06;;;;;;;3.83;0.95;;;;;;;24.35;41.74;101691.16;5031873;28;20111;-44
2023/07/20 10:35:50;;;;;;;1.73;1.00;;;;;;;24.82;38.99;101695.03;5031259;28;20144;-46
2023/07/20 10:38:16;;;;;;;2.10;0.90;;;;;;;24.39;41.12;101699.97;5029807;28;20041;-48
2023/07/20 10:40:41;;;;;;;2.17;1.00;;;;;;;24.26;40.33;101694.13;5031107;28;20087;-49
2023/07/20 10:43:08;;;;;;;1.83;0.80;;;;;;;25.21;37.82;101694.63;5031606;28;20620;-47
2023/07/20 10:45:42;;;;;;;1.40;1.10;;;;;;;24.71;40.24;101691.78;5031297;28;20121;-49
2023/07/20 10:48:27;;;;;;;1.98;0.88;;;;;;;23.63;40.77;101694.16;5031422;28;20120;-46
2023/07/20 10:51:15;;;;;;;1.98;0.93;;;;;;;23.67;41.67;101693.13;5030445;28;20049;-43
2023/07/20 10:53:40;;;;;;;1.60;1.10;;;;;;;24.59;38.62;101684.19;5030008;28;20400;-48
2023/07/20 10:56:16;;;;;;;2.25;0.90;;;;;;;24.46;39.36;101682.81;5029201;28;20033;-46
2023/07/20 10:58:42;;;;;;;1.40;0.90;;;;;;;24.18;41.09;101678.38;5030891;28;20496;-45
2023/07/20 11:01:08;;;;;;;1.98;1.00;;;;;;;23.45;42.28;101690.16;5030856;28;20053;-46
2023/07/20 11:03:39;;;;;;;2.63;1.00;;;;;;;23.23;43.41;101684.56;5030833;28;20112;-44
2023/07/20 11:06:23;;;;;;;2.55;1.00;;;;;;;23.58;43.09;101685.44;5031322;28;20037;-48
2023/07/20 11:08:54;;;;;;;;;;;;;;;23.30;43.57;101699.41;5031488;28;20068;-46
2023/07/20 11:11:25;;;;;;;1.60;1.05;;;;;;;23.75;42.39;101678.72;5030200;28;19926;-44
2023/07/20 11:13:58;;;;;;;2.92;1.10;;;;;;;24.55;41.85;101685.22;5031090;28;20044;-49
2023/07/20 11:16:41;;;;;;;1.73;0.98;;;;;;;24.60;39.00;101673.47;5030921;28;20396;-45
2023/07/20 11:19:17;;;;;;;2.75;1.10;;;;;;;24.69;41.35;101679.47;5031948;28;20554;-40
2023/07/20 11:21:44;;;;;;;1.63;1.10;;;;;;;25.06;40.76;101674.69;5030386;28;20520;-46
2023/07/20 11:24:11;;;;;;;1.42;1.05;;;;;;;25.07;39.39;101664.88;5030587;28;20377;-46